createdAt,value
2019-05-02T00:02:30.078Z,82.85
2019-05-02T00:05:16.594Z,81.88
2019-05-02T00:08:02.314Z,81.72
2019-05-02T00:10:48.755Z,81.75
2019-05-02T00:13:34.611Z,83.11
2019-05-02T00:16:20.323Z,83.98
2019-05-02T00:19:09.201Z,85.00
2019-05-02T00:21:53.820Z,85.42
2019-05-02T00:24:41.049Z,85.58
2019-05-02T00:27:27.608Z,84.40
2019-05-02T00:30:14.760Z,85.04
2019-05-02T00:33:00.543Z,85.54
2019-05-02T00:35:47.612Z,85.04
2019-05-02T00:38:38.294Z,84.07
2019-05-02T00:41:20.884Z,83.55
2019-05-02T00:44:11.099Z,83.05
2019-05-02T00:46:56.900Z,82.89
2019-05-02T00:49:42.291Z,83.56
2019-05-02T00:52:32.859Z,83.64
2019-05-02T00:55:16.326Z,83.78
2019-05-02T00:58:02.623Z,83.87
2019-05-02T01:01:29.600Z,83.76
2019-05-02T01:04:27.544Z,83.76
2019-05-02T01:07:12.223Z,83.88
2019-05-02T01:09:57.905Z,84.10
2019-05-02T01:12:46.099Z,84.52
2019-05-02T01:15:32.484Z,85.29
2019-05-02T01:18:21.308Z,85.35
2019-05-02T01:21:07.516Z,85.29
2019-05-02T01:23:53.056Z,85.61
2019-05-02T01:26:42.977Z,85.07
2019-05-02T01:29:35.135Z,84.50
2019-05-02T01:32:43.185Z,85.23
2019-05-02T01:35:44.288Z,85.35
2019-05-02T01:38:38.900Z,85.39
2019-05-02T01:41:29.108Z,87.09
2019-05-02T01:44:12.740Z,86.63
2019-05-02T01:47:00.058Z,86.56
2019-05-02T01:49:45.836Z,86.55
2019-05-02T01:52:31.269Z,85.76
2019-05-02T01:55:21.177Z,85.61
2019-05-02T01:58:05.723Z,86.95
2019-05-02T02:00:51.217Z,86.62
2019-05-02T02:03:40.485Z,86.68
2019-05-02T02:06:25.041Z,86.89
2019-05-02T02:09:10.620Z,86.80
2019-05-02T02:11:56.420Z,87.19
2019-05-02T02:14:42.053Z,87.03
2019-05-02T02:17:27.685Z,87.09
2019-05-02T02:20:15.824Z,86.69
2019-05-02T02:23:21.011Z,86.96
2019-05-02T02:26:11.893Z,86.64
2019-05-02T02:28:56.717Z,87.34
2019-05-02T02:31:46.947Z,87.38
2019-05-02T02:34:32.474Z,87.50
2019-05-02T02:37:17.505Z,86.56
2019-05-02T02:40:04.484Z,87.30
2019-05-02T02:42:50.344Z,86.64
2019-05-02T02:45:51.814Z,86.08
2019-05-02T02:48:40.621Z,86.35
2019-05-02T02:51:26.597Z,86.82
2019-05-02T02:54:12.550Z,86.61
2019-05-02T02:56:58.342Z,86.86
2019-05-02T02:59:45.166Z,86.39
2019-05-02T03:02:31.557Z,86.55
2019-05-02T03:05:18.779Z,86.29
2019-05-02T03:08:06.914Z,86.82
2019-05-02T03:10:53.126Z,87.30
2019-05-02T03:13:53.426Z,87.47
2019-05-02T03:16:46.157Z,86.08
2019-05-02T03:19:25.341Z,85.74
2019-05-02T03:22:11.353Z,86.70
2019-05-02T03:24:57.102Z,86.38
2019-05-02T03:27:42.597Z,86.90
2019-05-02T03:30:35.376Z,87.09
2019-05-02T03:33:15.811Z,87.02
2019-05-02T03:36:01.433Z,86.15
2019-05-02T03:38:49.247Z,86.89
2019-05-02T03:41:34.652Z,86.69
2019-05-02T03:44:25.936Z,86.70
2019-05-02T03:47:08.150Z,87.16
2019-05-02T03:49:54.350Z,86.80
2019-05-02T03:52:46.194Z,87.07
2019-05-02T03:55:33.730Z,87.18
2019-05-02T03:58:18.192Z,87.28
2019-05-02T04:01:04.107Z,86.80
2019-05-02T04:03:50.377Z,87.08
2019-05-02T04:06:36.642Z,86.48
2019-05-02T04:09:39.236Z,86.03
2019-05-02T04:12:23.733Z,85.78
2019-05-02T04:15:10.133Z,85.76
2019-05-02T04:17:56.527Z,85.39
2019-05-02T04:20:43.570Z,84.81
2019-05-02T04:23:30.221Z,85.20
2019-05-02T04:26:17.375Z,85.36
2019-05-02T04:29:03.989Z,85.44
2019-05-02T04:31:49.870Z,85.81
2019-05-02T04:34:35.360Z,86.15
2019-05-02T04:37:21.260Z,86.68
2019-05-02T04:40:11.405Z,85.94
2019-05-02T04:43:02.156Z,85.26
2019-05-02T04:45:53.164Z,85.84
2019-05-02T04:48:34.746Z,86.85
2019-05-02T04:51:20.285Z,86.39
2019-05-02T04:54:05.230Z,84.81
2019-05-02T04:56:55.488Z,83.94
2019-05-02T04:59:41.382Z,83.40
2019-05-02T05:02:34.193Z,83.07
2019-05-02T05:05:17.198Z,82.14
2019-05-02T05:08:02.149Z,82.77
2019-05-02T05:10:48.008Z,82.86
2019-05-02T05:13:33.654Z,82.63
2019-05-02T05:16:20.185Z,82.16
2019-05-02T05:19:07.624Z,81.41
2019-05-02T05:21:58.831Z,81.05
2019-05-02T05:24:48.378Z,84.13
2019-05-02T05:27:34.286Z,82.88
2019-05-02T05:30:19.702Z,82.39
2019-05-02T05:33:07.594Z,83.42
2019-05-02T05:35:52.904Z,82.07
2019-05-02T05:38:40.639Z,81.97
2019-05-02T05:41:27.791Z,81.76
2019-05-02T05:44:13.714Z,82.65
2019-05-02T05:46:59.306Z,82.44
2019-05-02T05:49:44.890Z,83.11
2019-05-02T05:52:33.006Z,81.89
2019-05-02T05:55:24.078Z,81.14
2019-05-02T05:58:15.281Z,80.37
2019-05-02T06:00:56.522Z,80.18
2019-05-02T06:03:44.981Z,80.65
2019-05-02T06:06:31.822Z,80.23
2019-05-02T06:09:17.583Z,80.02
2019-05-02T06:12:05.574Z,80.67
2019-05-02T06:14:51.015Z,80.97
2019-05-02T06:17:36.494Z,80.51
2019-05-02T06:20:25.750Z,80.35
2019-05-02T06:23:09.661Z,80.72
2019-05-02T06:25:55.583Z,82.64
2019-05-02T06:28:41.857Z,81.46
2019-05-02T06:31:38.216Z,80.90
2019-05-02T06:34:32.437Z,79.76
2019-05-02T06:37:18.430Z,79.02
2019-05-02T06:40:08.019Z,78.37
2019-05-02T06:42:52.598Z,80.35
2019-05-02T06:45:39.673Z,80.35
2019-05-02T06:48:25.843Z,79.90
2019-05-02T06:51:19.579Z,78.98
2019-05-02T06:53:58.879Z,79.20
2019-05-02T06:56:47.856Z,78.37
2019-05-02T06:59:34.255Z,79.57
2019-05-02T07:02:19.634Z,78.48
2019-05-02T07:05:06.935Z,77.97
2019-05-02T07:07:52.998Z,78.28
2019-05-02T07:10:44.785Z,80.30
2019-05-02T07:13:29.135Z,78.11
2019-05-02T07:16:38.865Z,77.44
2019-05-02T07:19:34.256Z,78.28
2019-05-02T07:22:21.579Z,77.37
2019-05-02T07:25:12.251Z,77.85
2019-05-02T07:28:04.642Z,79.15
2019-05-02T07:30:50.505Z,78.30
2019-05-02T07:33:37.430Z,77.76
2019-05-02T07:36:25.515Z,78.35
2019-05-02T07:39:11.718Z,78.13
2019-05-02T07:42:00.638Z,77.00
2019-05-02T07:44:46.480Z,76.43
2019-05-02T07:47:34.713Z,76.19
2019-05-02T07:50:20.345Z,76.14
2019-05-02T07:53:09.577Z,75.58
2019-05-02T07:55:55.876Z,74.07
2019-05-02T07:58:46.949Z,76.14
2019-05-02T08:01:29.114Z,76.68
2019-05-02T08:04:15.233Z,74.46
2019-05-02T08:07:01.564Z,75.23
2019-05-02T08:09:47.230Z,75.20
2019-05-02T08:12:33.224Z,74.56
2019-05-02T08:15:18.745Z,72.70
2019-05-02T08:18:04.716Z,74.73
2019-05-02T08:20:51.065Z,73.93
2019-05-02T08:23:38.400Z,72.38
2019-05-02T08:26:23.951Z,70.87
2019-05-02T08:29:10.716Z,70.39
2019-05-02T08:31:56.447Z,70.02
2019-05-02T08:34:46.133Z,69.46
2019-05-02T08:37:30.430Z,69.28
2019-05-02T08:40:15.925Z,67.29
2019-05-02T08:43:03.558Z,66.42
2019-05-02T08:45:49.870Z,66.07
2019-05-02T08:48:41.720Z,65.45
2019-05-02T08:51:24.437Z,65.07
2019-05-02T08:54:10.194Z,64.21
2019-05-02T08:56:58.963Z,64.31
2019-05-02T08:59:43.404Z,60.45
2019-05-02T09:02:40.871Z,61.48
2019-05-02T09:05:17.121Z,61.16
2019-05-02T09:08:03.297Z,60.93
2019-05-02T09:10:51.502Z,60.75
2019-05-02T09:13:37.198Z,62.65
2019-05-02T09:16:28.682Z,62.94
2019-05-02T09:19:13.515Z,64.46
2019-05-02T09:21:59.809Z,63.31
2019-05-02T09:24:45.641Z,59.82
2019-05-02T09:27:31.873Z,58.99
2019-05-02T09:30:22.851Z,56.33
2019-05-02T09:33:06.775Z,54.76
2019-05-02T09:35:52.928Z,58.82
2019-05-02T09:38:39.932Z,60.12
2019-05-02T09:41:26.933Z,61.94
2019-05-02T09:44:18.470Z,61.07
2019-05-02T09:47:02.369Z,56.90
2019-05-02T09:49:52.537Z,54.74
2019-05-02T09:52:39.459Z,52.89
2019-05-02T09:55:25.848Z,54.88
2019-05-02T09:58:18.925Z,56.23
2019-05-02T10:01:07.672Z,57.16
2019-05-02T10:03:53.163Z,55.25
2019-05-02T10:06:39.276Z,53.99
2019-05-02T10:09:27.182Z,54.53
2019-05-02T10:12:13.306Z,54.19
2019-05-02T10:14:58.967Z,56.63
2019-05-02T10:17:46.744Z,58.01
2019-05-02T10:20:36.184Z,56.05
2019-05-02T10:23:21.435Z,51.35
2019-05-02T10:26:12.891Z,50.45
2019-05-02T10:28:56.945Z,50.21
2019-05-02T10:31:43.030Z,55.44
2019-05-02T10:34:29.261Z,57.84
2019-05-02T10:37:16.516Z,54.62
2019-05-02T10:40:07.814Z,50.13
2019-05-02T10:42:53.020Z,53.13
2019-05-02T10:45:42.468Z,52.95
2019-05-02T10:48:28.881Z,54.89
2019-05-02T10:51:34.383Z,50.52
2019-05-02T10:54:22.880Z,48.91
2019-05-02T10:57:08.168Z,49.00
2019-05-02T10:59:56.134Z,49.47
2019-05-02T11:03:03.873Z,46.96
2019-05-02T11:05:58.053Z,47.17
2019-05-02T11:08:45.816Z,49.67
2019-05-02T11:11:29.391Z,46.95
2019-05-02T11:14:22.570Z,50.86
2019-05-02T11:17:28.556Z,50.86
2019-05-02T11:20:14.799Z,51.56
2019-05-02T11:23:02.197Z,52.01
2019-05-02T11:25:48.583Z,54.20
2019-05-02T11:28:34.771Z,55.90
2019-05-02T11:31:21.821Z,54.07
2019-05-02T11:34:08.095Z,51.52
2019-05-02T11:36:53.853Z,53.19
2019-05-02T11:39:46.381Z,56.65
2019-05-02T11:42:27.455Z,56.37
2019-05-02T11:45:13.482Z,55.19
2019-05-02T11:48:03.376Z,54.06
2019-05-02T11:50:47.322Z,48.86
2019-05-02T11:53:33.419Z,44.51
2019-05-02T11:56:22.051Z,50.11
2019-05-02T11:59:07.376Z,48.49
2019-05-02T12:02:31.977Z,48.61
2019-05-02T12:05:22.088Z,47.39
2019-05-02T12:08:09.494Z,46.80
2019-05-02T12:10:55.382Z,46.67
2019-05-02T12:13:42.748Z,49.99
2019-05-02T12:16:28.627Z,51.38
2019-05-02T12:19:14.968Z,48.25
2019-05-02T12:22:02.658Z,49.12
2019-05-02T12:24:48.065Z,51.12
2019-05-02T12:27:34.059Z,49.54
2019-05-02T12:30:19.740Z,46.10
2019-05-02T12:33:05.948Z,46.86
2019-05-02T12:35:53.099Z,48.77
2019-05-02T12:38:39.107Z,48.25
2019-05-02T12:41:25.421Z,50.57
2019-05-02T12:44:12.571Z,47.23
2019-05-02T12:46:58.594Z,45.19
2019-05-02T12:49:44.348Z,47.62
2019-05-02T12:52:31.957Z,49.44
2019-05-02T12:55:17.895Z,51.00
2019-05-02T12:58:03.678Z,50.01
2019-05-02T13:00:50.064Z,46.80
2019-05-02T13:03:41.002Z,45.65
2019-05-02T13:06:27.293Z,43.75
2019-05-02T13:09:13.245Z,48.54
2019-05-02T13:12:06.639Z,49.74
2019-05-02T13:14:52.916Z,51.71
2019-05-02T13:17:43.868Z,52.19
2019-05-02T13:20:29.456Z,49.56
2019-05-02T13:23:47.387Z,47.17
2019-05-02T13:26:33.630Z,46.94
2019-05-02T13:29:19.296Z,51.64
2019-05-02T13:32:21.805Z,50.22
2019-05-02T13:35:34.467Z,48.41
2019-05-02T13:38:22.418Z,49.98
2019-05-02T13:41:09.179Z,47.72
2019-05-02T13:43:54.912Z,49.82
2019-05-02T13:46:53.481Z,50.17
2019-05-02T13:50:03.987Z,50.62
2019-05-02T13:52:57.676Z,49.94
2019-05-02T13:55:45.620Z,48.27
2019-05-02T13:58:33.886Z,47.22
2019-05-02T14:01:22.530Z,46.45
2019-05-02T14:04:10.396Z,46.06
2019-05-02T14:06:56.029Z,44.81
2019-05-02T14:09:58.323Z,45.39
2019-05-02T14:12:45.027Z,46.50
2019-05-02T14:15:36.176Z,46.32
2019-05-02T14:18:29.047Z,47.55
2019-05-02T14:21:12.624Z,49.27
2019-05-02T14:24:01.578Z,49.42
2019-05-02T14:26:47.372Z,50.02
2019-05-02T14:29:33.203Z,50.90
2019-05-02T14:32:23.714Z,52.66
2019-05-02T14:35:28.366Z,53.88
2019-05-02T14:38:15.138Z,55.84
2019-05-02T14:41:08.375Z,64.56
2019-05-02T14:43:55.373Z,72.91
2019-05-02T14:46:42.550Z,75.84
2019-05-02T14:49:29.049Z,77.32
2019-05-02T14:52:16.404Z,78.18
2019-05-02T14:55:04.075Z,78.89
2019-05-02T14:57:49.510Z,78.07
2019-05-02T15:00:43.219Z,78.51
2019-05-02T15:03:28.527Z,77.92
2019-05-02T15:06:15.026Z,77.62
2019-05-02T15:09:02.416Z,78.47
2019-05-02T15:11:57.262Z,79.20
2019-05-02T15:14:43.268Z,77.59
2019-05-02T15:17:36.258Z,79.10
2019-05-02T15:20:17.448Z,77.72
2019-05-02T15:23:07.128Z,76.16
2019-05-02T15:25:52.471Z,76.14
2019-05-02T15:28:39.348Z,75.99
2019-05-02T15:31:32.406Z,77.40
2019-05-02T15:34:25.242Z,78.97
2019-05-02T15:37:12.384Z,79.53
2019-05-02T15:42:47.402Z,81.89
2019-05-02T15:45:36.658Z,82.93
2019-05-02T15:48:27.514Z,83.02
2019-05-02T15:51:12.838Z,83.20
2019-05-02T15:54:08.192Z,82.94
2019-05-02T15:56:54.121Z,83.14
2019-05-02T15:59:45.074Z,82.23
2019-05-02T16:02:27.533Z,83.57
2019-05-02T16:05:13.510Z,83.67
2019-05-02T16:08:08.262Z,84.02
2019-05-02T16:10:48.148Z,85.39
2019-05-02T16:13:33.882Z,85.85
2019-05-02T16:16:21.923Z,86.46
2019-05-02T16:19:08.205Z,86.58
2019-05-02T16:22:16.834Z,87.82
2019-05-02T16:25:03.110Z,87.35
2019-05-02T16:27:48.889Z,87.68
2019-05-02T16:30:37.008Z,88.45
2019-05-02T16:33:24.106Z,87.79
2019-05-02T16:36:09.801Z,87.21
2019-05-02T16:38:56.400Z,86.67
2019-05-02T16:41:49.197Z,87.73
2019-05-02T16:44:30.082Z,87.93
2019-05-02T16:47:16.424Z,88.54
2019-05-02T16:50:07.250Z,87.24
2019-05-02T16:52:53.433Z,87.34
2019-05-02T16:55:46.038Z,87.07
2019-05-02T16:58:33.655Z,86.24
2019-05-02T17:01:24.626Z,86.61
2019-05-02T17:04:07.652Z,87.22
2019-05-02T17:06:56.849Z,87.89
2019-05-02T17:09:56.630Z,87.51
2019-05-02T17:12:47.020Z,86.61
2019-05-02T17:15:35.454Z,86.36
2019-05-02T17:18:22.807Z,86.40
2019-05-02T17:21:09.249Z,86.52
2019-05-02T17:23:57.999Z,86.98
2019-05-02T17:26:43.951Z,86.03
2019-05-02T17:29:31.789Z,85.69
2019-05-02T17:32:18.804Z,86.08
2019-05-02T17:35:09.746Z,85.70
2019-05-02T17:37:52.736Z,85.75
2019-05-02T17:40:38.671Z,86.09
2019-05-02T17:43:24.834Z,86.55
2019-05-02T17:46:12.544Z,85.77
2019-05-02T17:48:58.034Z,86.25
2019-05-02T17:52:05.732Z,85.25
2019-05-02T17:54:50.215Z,85.47
2019-05-02T17:57:35.834Z,84.87
2019-05-02T18:00:24.030Z,84.70
2019-05-02T18:03:09.789Z,84.87
2019-05-02T18:05:55.774Z,85.13
2019-05-02T18:08:46.269Z,85.68
2019-05-02T18:11:36.023Z,85.38
2019-05-02T18:14:21.181Z,86.35
2019-05-02T18:17:05.344Z,87.38
2019-05-02T18:19:52.086Z,86.69
2019-05-02T18:22:40.022Z,86.58
2019-05-02T18:25:26.050Z,86.80
2019-05-02T18:28:14.070Z,87.07
2019-05-02T18:31:04.519Z,86.98
2019-05-02T18:33:48.703Z,87.01
2019-05-02T18:36:34.895Z,86.82
2019-05-02T18:39:22.186Z,86.58
2019-05-02T18:42:08.314Z,86.35
2019-05-02T18:44:54.593Z,86.59
2019-05-02T18:47:41.792Z,87.37
2019-05-02T18:50:31.972Z,86.71
2019-05-02T18:53:18.617Z,87.25
2019-05-02T18:56:05.868Z,86.73
2019-05-02T18:58:54.142Z,86.95
2019-05-02T19:01:40.280Z,86.54
2019-05-02T19:04:34.993Z,86.78
2019-05-02T19:07:15.851Z,87.07
2019-05-02T19:10:05.798Z,87.08
2019-05-02T19:12:49.704Z,86.50
2019-05-02T19:15:39.726Z,87.22
2019-05-02T19:18:23.063Z,88.25
2019-05-02T19:21:08.963Z,88.39
2019-05-02T19:23:55.088Z,87.99
2019-05-02T19:26:49.041Z,88.58
2019-05-02T19:29:31.855Z,88.91
2019-05-02T19:32:26.963Z,88.35
2019-05-02T19:35:07.019Z,88.99
2019-05-02T19:37:55.069Z,88.87
2019-05-02T19:40:42.777Z,89.01
2019-05-02T19:43:28.806Z,88.76
2019-05-02T19:46:16.858Z,87.94
2019-05-02T19:49:06.891Z,89.18
2019-05-02T19:51:56.640Z,89.41
2019-05-02T19:54:41.018Z,89.18
2019-05-02T19:57:27.015Z,88.59
2019-05-02T20:00:14.802Z,88.52
2019-05-02T20:03:01.778Z,88.46
2019-05-02T20:05:48.735Z,88.15
2019-05-02T20:08:35.809Z,87.89
2019-05-02T20:11:22.456Z,87.54
2019-05-02T20:14:09.662Z,87.37
2019-05-02T20:16:57.398Z,87.79
2019-05-02T20:19:45.151Z,87.47
2019-05-02T20:22:31.756Z,87.53
2019-05-02T20:25:18.352Z,87.70
2019-05-02T20:28:04.876Z,87.92
2019-05-02T20:30:52.630Z,88.09
2019-05-02T20:33:38.904Z,87.62
2019-05-02T20:36:24.742Z,87.93
2019-05-02T20:39:11.985Z,88.77
2019-05-02T20:41:57.990Z,89.08
2019-05-02T20:44:43.724Z,89.32
2019-05-02T20:47:30.136Z,89.71
2019-05-02T20:50:16.692Z,90.53
2019-05-02T20:53:02.676Z,90.01
2019-05-02T20:55:49.129Z,90.29
2019-05-02T20:58:35.729Z,89.77
2019-05-02T21:01:21.844Z,90.38
2019-05-02T21:04:08.343Z,90.58
2019-05-02T21:07:26.290Z,90.26
2019-05-02T21:10:21.583Z,90.43
2019-05-02T21:13:07.408Z,89.96
2019-05-02T21:15:53.772Z,89.67
2019-05-02T21:18:42.196Z,89.11
2019-05-02T21:21:28.275Z,88.71
2019-05-02T21:24:13.900Z,87.70
2019-05-02T21:27:01.852Z,86.39
2019-05-02T21:29:48.308Z,85.55
2019-05-02T21:32:34.397Z,84.85
2019-05-02T21:35:22.362Z,85.13
2019-05-02T21:38:08.103Z,85.10
2019-05-02T21:40:53.859Z,85.52
2019-05-02T21:43:42.282Z,86.28
2019-05-02T21:46:28.148Z,86.93
2019-05-02T21:49:16.455Z,86.69
2019-05-02T21:52:15.153Z,86.89
2019-05-02T21:55:12.459Z,87.40
2019-05-02T21:57:58.481Z,87.05
2019-05-02T22:00:54.765Z,87.07
2019-05-02T22:03:41.002Z,86.85
2019-05-02T22:06:27.103Z,87.33
2019-05-02T22:09:13.962Z,86.92
2019-05-02T22:11:59.489Z,87.47
2019-05-02T22:14:45.006Z,87.90
2019-05-02T22:17:32.202Z,87.99
2019-05-02T22:20:18.601Z,88.11
2019-05-02T22:23:04.604Z,87.56
2019-05-02T22:25:52.629Z,87.60
2019-05-02T22:28:40.040Z,87.50
2019-05-02T22:31:25.649Z,87.57
2019-05-02T22:34:12.985Z,86.91
2019-05-02T22:37:01.843Z,86.54
2019-05-02T22:39:55.804Z,86.13
2019-05-02T22:42:42.021Z,85.69
2019-05-02T22:45:27.927Z,85.19
2019-05-02T22:48:14.593Z,84.89
2019-05-02T22:51:00.229Z,84.22
2019-05-02T22:53:46.524Z,83.57
2019-05-02T22:56:33.957Z,83.19
2019-05-02T22:59:23.527Z,82.89
2019-05-02T23:02:07.997Z,82.67
2019-05-02T23:04:55.323Z,83.69
2019-05-02T23:07:41.908Z,83.28
2019-05-02T23:10:28.340Z,83.34
2019-05-02T23:13:15.229Z,82.76
2019-05-02T23:16:02.912Z,82.60
2019-05-02T23:18:48.680Z,81.15
2019-05-02T23:21:35.177Z,79.91
2019-05-02T23:24:38.701Z,79.73
2019-05-02T23:27:28.979Z,79.94
2019-05-02T23:30:19.160Z,80.94
2019-05-02T23:33:05.062Z,81.34
2019-05-02T23:35:52.161Z,81.19
2019-05-02T23:38:38.462Z,81.00
2019-05-02T23:41:25.286Z,81.24
2019-05-02T23:44:12.228Z,81.44
2019-05-02T23:46:58.911Z,81.52
2019-05-02T23:49:45.149Z,81.69
2019-05-02T23:52:31.807Z,81.29
2019-05-02T23:55:17.501Z,82.00
2019-05-02T23:58:03.199Z,82.07
